Time;durP1;ratioP1;P1;durP2;ratioP2;P2;SDS_P1;SDS_P2;PMS_P1;PMS_P2;Temp;Humidity;BMP_temperature;BMP_pressure;BME280_temperature;BME280_humidity;BME280_pressure;Samples;Min_cycle;Max_cycle;Signal;HPM_P1;HPM_P2
2022/11/07 00:01:26;;;;;;;;;;;;;;;7.45;100.00;100178.50;5036465;28;19935;-88
2022/11/07 00:03:55;;;;;;;;;;;;;;;7.42;100.00;100179.34;5032477;28;19917;-90
2022/11/07 00:06:20;;;;;;;;;;;;;;;7.38;100.00;100181.34;5030989;28;20282;-89
2022/11/07 00:08:46;;;;;;;;;;;;;;;7.33;100.00;100183.78;5029638;28;19921;-88
2022/11/07 00:11:11;;;;;;;;;;;;;;;7.30;100.00;100193.66;5035858;28;19917;-90
2022/11/07 00:13:36;;;;;;;;;;;;;;;7.26;100.00;100181.88;5010849;28;20370;-89
2022/11/07 00:16:08;;;;;;;;;;;;;;;7.25;100.00;100194.09;5030043;28;19928;-78
2022/11/07 00:18:34;;;;;;;;;;;;;;;7.21;100.00;100190.59;5028553;28;19917;-91
2022/11/07 00:21:03;;;;;;;;;;;;;;;7.17;100.00;100198.13;5022459;28;19995;-90
2022/11/07 00:23:28;;;;;;;;;;;;;;;7.13;100.00;100191.88;5030294;28;19967;-89
2022/11/07 00:25:53;;;;;;;;;;;;;;;7.11;100.00;100199.00;5030067;28;19952;-89
2022/11/07 00:28:19;;;;;;;;;;;;;;;7.09;100.00;100201.38;5028160;28;19928;-89
2022/11/07 00:30:44;;;;;;;;;;;;;;;7.05;100.00;100204.16;5030675;28;20012;-89
2022/11/07 00:33:09;;;;;;;;;;;;;;;7.01;100.00;100200.66;5029499;28;20335;-89
2022/11/07 00:35:39;;;;;;;;;;;;;;;6.92;100.00;100203.09;5012543;28;19917;-88
2022/11/07 00:38:04;;;;;;;;;;;;;;;6.80;100.00;100200.84;5012991;28;19968;-78
2022/11/07 00:40:29;;;;;;;;;;;;;;;6.85;100.00;100203.19;5021489;28;19987;-79
2022/11/07 00:42:55;;;;;;;;;;;;;;;6.85;100.00;100200.41;5038077;28;20418;-78
2022/11/07 00:45:20;;;;;;;;;;;;;;;6.79;100.00;100202.84;5010661;28;19924;-79
2022/11/07 00:47:45;;;;;;;;;;;;;;;6.75;100.00;100204.06;5029098;28;19924;-78
2022/11/07 00:50:11;;;;;;;;;;;;;;;6.67;100.00;100199.81;5028630;28;19917;-79
2022/11/07 00:52:36;;;;;;;;;;;;;;;6.67;100.00;100203.34;5033259;28;19940;-79
2022/11/07 00:55:01;;;;;;;;;;;;;;;6.66;100.00;100206.50;5029798;28;19917;-90
2022/11/07 00:57:27;;;;;;;;;;;;;;;6.63;100.00;100201.81;5027949;28;19972;-79
2022/11/07 00:59:52;;;;;;;;;;;;;;;6.65;100.00;100210.44;5028292;28;19917;-79
2022/11/07 01:02:17;;;;;;;;;;;;;;;6.63;100.00;100210.88;5028380;28;19917;-79
2022/11/07 01:07:27;;;;;;;;;;;;;;;6.55;100.00;100203.84;5017651;28;19964;-79
2022/11/07 01:09:52;;;;;;;;;;;;;;;6.57;100.00;100204.22;5031347;28;20324;-79
2022/11/07 01:12:17;;;;;;;;;;;;;;;6.56;100.00;100208.94;5023514;28;19960;-79
2022/11/07 01:14:43;;;;;;;;;;;;;;;6.56;100.00;100214.44;5032766;28;20386;-89
2022/11/07 01:17:08;;;;;;;;;;;;;;;6.52;100.00;100213.69;5033703;28;21463;-89
2022/11/07 01:19:33;;;;;;;;;;;;;;;6.44;100.00;100216.91;5036519;28;20378;-89
2022/11/07 01:21:59;;;;;;;;;;;;;;;6.43;100.00;100220.84;5044435;28;19974;-88
2022/11/07 01:24:24;;;;;;;;;;;;;;;6.39;100.00;100198.81;5040158;28;20367;-89
2022/11/07 01:26:50;;;;;;;;;;;;;;;6.38;100.00;100208.28;5033398;28;19917;-89
2022/11/07 01:29:16;;;;;;;;;;;;;;;6.41;100.00;100199.22;5034169;28;19921;-89
2022/11/07 01:31:42;;;;;;;;;;;;;;;6.39;100.00;100200.81;5033245;28;20384;-79
2022/11/07 01:34:07;;;;;;;;;;;;;;;6.34;100.00;100202.03;5034784;28;19917;-88
2022/11/07 01:36:32;;;;;;;;;;;;;;;6.29;100.00;100199.69;5015377;28;19917;-89
2022/11/07 01:38:58;;;;;;;;;;;;;;;6.30;100.00;100200.47;5016038;28;19917;-88
2022/11/07 01:41:27;;;;;;;;;;;;;;;6.24;100.00;100194.59;5037217;28;19920;-90
2022/11/07 01:43:54;;;;;;;;;;;;;;;6.22;100.00;100194.22;5031621;28;19921;-90
2022/11/07 01:46:21;;;;;;;;;;;;;;;6.22;100.00;100198.97;5033046;28;20345;-90
2022/11/07 01:48:49;;;;;;;;;;;;;;;6.22;100.00;100199.75;5030228;28;19917;-90
2022/11/07 01:51:14;;;;;;;;;;;;;;;6.17;100.00;100197.41;5032739;28;19916;-90
2022/11/07 01:53:40;;;;;;;;;;;;;;;6.14;100.00;100186.41;5030842;28;19935;-79
2022/11/07 01:56:06;;;;;;;;;;;;;;;6.12;100.00;100184.06;5029774;28;19917;-79
2022/11/07 01:58:31;;;;;;;;;;;;;;;6.14;100.00;100192.72;5029342;28;19917;-79
2022/11/07 02:00:57;;;;;;;;;;;;;;;6.14;100.00;100192.72;5010085;28;19928;-79
2022/11/07 02:03:22;;;;;;;;;;;;;;;6.13;100.00;100188.38;5020273;28;19917;-79
2022/11/07 02:05:50;;;;;;;;;;;;;;;6.14;100.00;100189.97;5032534;28;19924;-79
2022/11/07 02:08:15;;;;;;;;;;;;;;;6.17;100.00;100196.63;5013524;28;20434;-79
2022/11/07 02:10:40;;;;;;;;;;;;;;;6.17;100.00;100200.16;5026919;28;19921;-79
2022/11/07 02:13:06;;;;;;;;;;;;;;;6.11;100.00;100199.00;5030641;28;19924;-89
2022/11/07 02:15:31;;;;;;;;;;;;;;;6.11;100.00;100193.50;5033081;28;19917;-89
2022/11/07 02:17:57;;;;;;;;;;;;;;;6.10;100.00;100197.47;5014819;28;19987;-90
2022/11/07 02:20:22;;;;;;;;;;;;;;;6.08;100.00;100197.06;5015349;28;19917;-89
2022/11/07 02:22:49;;;;;;;;;;;;;;;6.07;100.00;100199.03;5038076;28;19928;-88
2022/11/07 02:25:15;;;;;;;;;;;;;;;6.08;100.00;100205.31;5015352;28;19912;-89
2022/11/07 02:27:41;;;;;;;;;;;;;;;6.04;100.00;100196.31;5033595;28;19917;-90
2022/11/07 02:30:10;;;;;;;;;;;;;;;6.03;100.00;100200.22;5026766;28;19924;-90
2022/11/07 02:32:36;;;;;;;;;;;;;;;6.02;100.00;100199.47;5014741;28;19924;-79
2022/11/07 02:35:03;;;;;;;;;;;;;;;6.03;100.00;100203.00;5016912;28;19917;-79
2022/11/07 02:37:32;;;;;;;;;;;;;;;6.02;100.00;100212.47;5031813;28;20003;-79
2022/11/07 02:40:01;;;;;;;;;;;;;;;5.99;100.00;100202.22;5031080;28;19917;-79
2022/11/07 02:42:42;;;;;;;;;;;;;;;5.96;100.00;100192.81;5029583;28;19928;-79
2022/11/07 02:45:27;;;;;;;;;;;;;;;5.95;100.00;100195.94;5017310;28;19921;-78
2022/11/07 02:47:53;;;;;;;;;;;;;;;5.91;100.00;100195.19;5027112;28;19928;-79
2022/11/07 02:50:18;;;;;;;;;;;;;;;5.91;100.00;100193.22;5030345;28;19917;-90
2022/11/07 02:52:43;;;;;;;;;;;;;;;5.91;100.00;100200.69;5030725;28;20035;-89
2022/11/07 02:55:09;;;;;;;;;;;;;;;5.83;100.00;100205.41;5030720;28;19972;-89
2022/11/07 02:57:34;;;;;;;;;;;;;;;5.75;100.00;100197.59;5029225;28;20375;-89
2022/11/07 03:00:00;;;;;;;;;;;;;;;5.72;100.00;100193.69;5028079;28;19921;-89
2022/11/07 03:02:25;;;;;;;;;;;;;;;5.71;100.00;100197.63;5030079;28;19924;-89
2022/11/07 03:04:51;;;;;;;;;;;;;;;5.71;100.00;100196.81;5030214;28;20327;-89
2022/11/07 03:07:16;;;;;;;;;;;;;;;5.72;100.00;100198.41;5031117;28;19916;-89
2022/11/07 03:09:41;;;;;;;;;;;;;;;5.72;100.00;100195.66;5030408;28;19924;-79
2022/11/07 03:12:07;;;;;;;;;;;;;;;5.68;100.00;100200.38;5031788;28;20437;-79
2022/11/07 03:14:32;;;;;;;;;;;;;;;5.67;100.00;100193.31;5026146;28;19924;-79
2022/11/07 03:16:57;;;;;;;;;;;;;;;5.67;100.00;100190.56;5020462;28;20351;-79
2022/11/07 03:19:23;;;;;;;;;;;;;;;5.65;100.00;100190.97;5026073;28;19964;-79
2022/11/07 03:21:48;;;;;;;;;;;;;;;5.62;100.00;100195.28;5036271;28;20345;-79
2022/11/07 03:24:14;;;;;;;;;;;;;;;5.55;100.00;100184.31;5026765;28;19996;-79
2022/11/07 03:26:39;;;;;;;;;;;;;;;5.55;100.00;100187.06;5020677;28;20281;-78
2022/11/07 03:29:05;;;;;;;;;;;;;;;5.50;100.00;100181.97;5029986;28;20378;-89
2022/11/07 03:31:30;;;;;;;;;;;;;;;5.50;100.00;100192.22;5024726;28;20393;-89
2022/11/07 03:33:55;;;;;;;;;;;;;;;5.50;100.00;100204.00;5032771;28;20298;-89
2022/11/07 03:36:21;;;;;;;;;;;;;;;5.48;100.00;100202.81;5029865;28;19917;-89
2022/11/07 03:38:46;;;;;;;;;;;;;;;5.47;100.00;100210.28;5030684;28;20286;-89
2022/11/07 03:41:15;;;;;;;;;;;;;;;5.47;100.00;100215.78;5033459;28;19921;-89
2022/11/07 03:43:41;;;;;;;;;;;;;;;5.48;100.00;100220.13;5028053;28;20378;-90
2022/11/07 03:46:06;;;;;;;;;;;;;;;5.48;100.00;100214.63;5028803;28;19924;-79
2022/11/07 03:48:31;;;;;;;;;;;;;;;5.42;100.00;100218.94;5028168;28;19921;-89
2022/11/07 03:50:57;;;;;;;;;;;;;;;5.35;100.00;100216.22;5029251;28;19917;-88
2022/11/07 03:53:22;;;;;;;;;;;;;;;5.35;100.00;100218.97;5021981;28;20004;-89
2022/11/07 03:55:48;;;;;;;;;;;;;;;5.38;100.00;100222.91;5011703;28;20055;-89
2022/11/07 03:58:13;;;;;;;;;;;;;;;5.37;100.00;100227.63;5014743;28;19921;-90
2022/11/07 04:00:38;;;;;;;;;;;;;;;5.37;100.00;100221.34;5029275;28;20260;-89
2022/11/07 04:03:04;;;;;;;;;;;;;;;5.39;100.00;100247.25;5027923;28;19971;-89
2022/11/07 04:05:29;;;;;;;;;;;;;;;5.44;100.00;100255.13;5031679;28;20374;-89
2022/11/07 04:07:54;;;;;;;;;;;;;;;5.46;100.00;100247.22;5031027;28;19917;-78
2022/11/07 04:10:20;;;;;;;;;;;;;;;5.51;100.00;100254.31;5036498;28;19916;-80
2022/11/07 04:18:13;;;;;;;;;;;;;;;5.52;100.00;100258.63;5030732;28;20467;-79
2022/11/07 04:20:38;;;;;;;;;;;;;;;5.50;100.00;100259.00;5036140;28;19925;-80
2022/11/07 04:23:03;;;;;;;;;;;;;;;5.52;100.00;100262.16;5030469;28;20310;-89
2022/11/07 04:28:15;;;;;;;;;;;;;;;5.57;100.00;100258.22;5041011;28;20015;-79
2022/11/07 04:30:40;;;;;;;;;;;;;;;5.55;100.00;100266.88;5033074;28;19955;-79
2022/11/07 04:33:05;;;;;;;;;;;;;;;5.60;100.00;100274.72;5029659;28;20382;-79
2022/11/07 04:35:31;;;;;;;;;;;;;;;5.59;100.00;100273.16;5029963;28;19917;-79
2022/11/07 04:37:57;;;;;;;;;;;;;;;5.59;100.00;100284.16;5028882;28;20366;-79
2022/11/07 04:40:22;;;;;;;;;;;;;;;5.57;100.00;100281.03;5013514;28;20007;-79
2022/11/07 04:42:48;;;;;;;;;;;;;;;5.61;100.00;100281.81;5028545;28;19921;-79
2022/11/07 04:45:13;;;;;;;;;;;;;;;5.63;100.00;100290.44;5012949;28;19932;-91
2022/11/07 04:47:39;;;;;;;;;;;;;;;5.64;100.00;100291.22;5032351;28;19976;-90
2022/11/07 04:50:05;;;;;;;;;;;;;;;5.62;100.00;100294.34;5030593;28;19917;-90
2022/11/07 04:52:30;;;;;;;;;;;;;;;5.61;100.00;100292.81;5032755;28;19928;-89
2022/11/07 04:54:55;;;;;;;;;;;;;;;5.62;100.00;100288.09;5025259;28;19920;-90
2022/11/07 04:57:21;;;;;;;;;;;;;;;5.63;100.00;100293.19;5033053;28;19928;-90
2022/11/07 04:59:46;;;;;;;;;;;;;;;5.68;100.00;100282.94;5029603;28;20286;-89
2022/11/07 05:02:11;;;;;;;;;;;;;;;5.67;100.00;100290.41;5030975;28;19917;-88
2022/11/07 05:04:37;;;;;;;;;;;;;;;5.70;100.00;100294.38;5034232;28;20001;-79
2022/11/07 05:07:03;;;;;;;;;;;;;;;5.73;100.00;100285.31;5032455;28;19944;-79
2022/11/07 05:09:28;;;;;;;;;;;;;;;5.74;100.00;100284.13;5028450;28;19971;-79
2022/11/07 05:11:54;;;;;;;;;;;;;;;5.75;100.00;100288.44;5031143;28;19949;-79
2022/11/07 05:14:19;;;;;;;;;;;;;;;5.74;100.00;100293.16;5032251;28;20342;-79
2022/11/07 05:16:45;;;;;;;;;;;;;;;5.72;100.00;100289.22;5029253;28;19917;-79
2022/11/07 05:19:19;;;;;;;;;;;;;;;5.70;100.00;100294.38;5029063;28;19940;-79
2022/11/07 05:21:45;;;;;;;;;;;;;;;5.72;100.00;100291.97;5041686;28;19917;-79
2022/11/07 05:24:10;;;;;;;;;;;;;;;5.75;100.00;100296.69;5023672;28;19921;-89
2022/11/07 05:26:36;;;;;;;;;;;;;;;5.78;100.00;100301.41;5037930;28;19917;-89
2022/11/07 05:29:01;;;;;;;;;;;;;;;5.80;100.00;100299.03;5033653;28;19917;-91
2022/11/07 05:31:27;;;;;;;;;;;;;;;5.83;100.00;100303.75;5014381;28;19924;-90
2022/11/07 05:33:52;;;;;;;;;;;;;;;5.84;100.00;100303.34;5034459;28;19924;-90
2022/11/07 05:36:18;;;;;;;;;;;;;;;5.86;100.00;100313.97;5035243;28;19928;-89
2022/11/07 05:38:45;;;;;;;;;;;;;;;5.85;100.00;100296.66;5032874;28;19921;-90
2022/11/07 05:41:11;;;;;;;;;;;;;;;5.83;100.00;100303.75;5002120;28;19952;-80
2022/11/07 05:43:37;;;;;;;;;;;;;;;5.86;100.00;100302.97;5030804;28;19972;-90
2022/11/07 05:46:03;;;;;;;;;;;;;;;5.88;100.00;100303.38;5032448;28;19916;-91
2022/11/07 05:48:29;;;;;;;;;;;;;;;5.91;100.00;100311.59;5012987;28;19921;-91
2022/11/07 05:50:54;;;;;;;;;;;;;;;5.93;100.00;100313.97;5011101;28;19912;-90
2022/11/07 05:53:20;;;;;;;;;;;;;;;5.95;100.00;100314.34;5030076;28;20326;-89
2022/11/07 05:55:46;;;;;;;;;;;;;;;5.95;100.00;100322.59;5049094;28;19962;-90
2022/11/07 05:58:11;;;;;;;;;;;;;;;5.99;100.00;100328.88;5018422;28;19917;-91
2022/11/07 06:00:37;;;;;;;;;;;;;;;6.02;100.00;100336.38;5023465;28;19963;-89
2022/11/07 06:03:02;;;;;;;;;;;;;;;6.03;100.00;100337.91;5027833;28;19921;-79
2022/11/07 06:05:27;;;;;;;;;;;;;;;6.05;100.00;100336.34;5029302;28;19917;-79
2022/11/07 06:07:53;;;;;;;;;;;;;;;6.07;100.00;100341.44;5009497;28;20546;-79
2022/11/07 06:10:18;;;;;;;;;;;;;;;6.07;100.00;100346.94;5024949;28;19979;-80
2022/11/07 06:12:43;;;;;;;;;;;;;;;6.08;100.00;100348.53;5016463;28;19960;-80
2022/11/07 06:15:09;;;;;;;;;;;;;;;6.06;100.00;100356.41;5027829;28;19931;-80
2022/11/07 06:17:34;;;;;;;;;;;;;;;6.05;100.00;100363.91;5010992;28;19924;-80
2022/11/07 06:20:00;;;;;;;;;;;;;;;6.09;100.00;100372.13;5025823;28;20343;-90
2022/11/07 06:22:25;;;;;;;;;;;;;;;6.08;100.00;100374.09;5032152;28;19964;-91
2022/11/07 06:24:50;;;;;;;;;;;;;;;6.08;100.00;100376.06;5028566;28;19971;-90
2022/11/07 06:27:16;;;;;;;;;;;;;;;6.06;100.00;100383.97;5027779;28;19917;-91
2022/11/07 06:29:41;;;;;;;;;;;;;;;6.09;100.00;100389.44;5034498;28;20465;-90
2022/11/07 06:32:06;;;;;;;;;;;;;;;6.14;100.00;100396.53;5029614;28;20004;-89
2022/11/07 06:34:32;;;;;;;;;;;;;;;6.18;100.00;100402.03;5027951;28;19917;-92
2022/11/07 06:36:57;;;;;;;;;;;;;;;6.22;100.00;100394.53;5013829;28;19964;-92
2022/11/07 06:39:22;;;;;;;;;;;;;;;6.27;100.00;100405.91;5013237;28;19963;-80
2022/11/07 06:41:48;;;;;;;;;;;;;;;6.30;100.00;100418.91;5028948;28;19936;-80
2022/11/07 06:44:13;;;;;;;;;;;;;;;6.35;100.00;100417.72;5023740;28;19939;-78
2022/11/07 06:46:38;;;;;;;;;;;;;;;6.37;100.00;100410.59;5040566;28;19916;-79
2022/11/07 06:49:04;;;;;;;;;;;;;;;6.42;100.00;100421.22;5037754;28;19917;-80
2022/11/07 06:51:29;;;;;;;;;;;;;;;6.45;100.00;100416.88;5030246;28;20282;-79
2022/11/07 06:53:55;;;;;;;;;;;;;;;6.45;100.00;100425.94;5028379;28;19917;-79
2022/11/07 06:56:20;;;;;;;;;;;;;;;6.40;100.00;100420.81;5028946;28;19917;-79
2022/11/07 06:58:45;;;;;;;;;;;;;;;6.28;100.00;100424.00;5032013;28;19952;-96
2022/11/07 07:01:12;;;;;;;;;;;;;;;6.20;100.00;100422.47;5037504;28;19917;-96
2022/11/07 07:03:38;;;;;;;;;;;;;;;6.18;100.00;100422.09;5033863;28;19917;-92
2022/11/07 07:06:04;;;;;;;;;;;;;;;6.22;100.00;100416.56;5036580;28;19947;-96
2022/11/07 07:08:30;;;;;;;;;;;;;;;6.18;100.00;100424.06;5020126;28;20020;-96
2022/11/07 07:10:55;;;;;;;;;;;;;;;6.18;100.00;100422.09;5037312;28;19948;-96
2022/11/07 07:13:20;;;;;;;;;;;;;;;6.18;100.00;100422.09;5025243;28;19918;-95
2022/11/07 07:15:53;;;;;;;;;;;;;;;6.25;100.00;100408.28;5015600;28;19914;-95
2022/11/07 07:18:18;;;;;;;;;;;;;;;6.31;100.00;100412.19;5013154;28;19921;-78
2022/11/07 07:20:44;;;;;;;;;;;;;;;6.31;100.00;100420.44;4995426;28;20000;-78
2022/11/07 07:23:09;;;;;;;;;;;;;;;6.31;100.00;100412.19;5031755;28;19960;-78
2022/11/07 07:25:34;;;;;;;;;;;;;;;6.36;100.00;100411.00;5031716;28;19971;-79
2022/11/07 07:28:00;;;;;;;;;;;;;;;6.41;100.00;100413.34;5031640;28;19924;-79
2022/11/07 07:30:25;;;;;;;;;;;;;;;6.48;100.00;100416.84;5014010;28;19921;-78
2022/11/07 07:32:50;;;;;;;;;;;;;;;6.52;100.00;100423.13;5031952;28;19917;-78
2022/11/07 07:35:16;;;;;;;;;;;;;;;6.61;100.00;100422.72;5013575;28;19971;-78
2022/11/07 07:37:41;;;;;;;;;;;;;;;6.66;100.00;100411.28;5033927;28;19924;-93
2022/11/07 07:40:07;;;;;;;;;;;;;;;6.69;100.00;100415.19;5034624;28;19924;-93
2022/11/07 07:42:32;;;;;;;;;;;;;;;6.83;100.00;100415.13;5034808;28;20416;-94
2022/11/07 07:44:58;;;;;;;;;;;;;;;6.91;100.00;100413.91;5033380;28;20448;-94
2022/11/07 07:47:23;;;;;;;;;;;;;;;7.00;100.00;100414.22;5034062;28;19917;-93
2022/11/07 07:49:48;;;;;;;;;;;;;;;7.07;100.00;100408.69;5015691;28;19962;-95
2022/11/07 07:52:14;;;;;;;;;;;;;;;7.16;100.00;100417.25;5036325;28;19913;-95
2022/11/07 07:54:39;;;;;;;;;;;;;;;7.26;100.00;100413.66;5035648;28;20008;-96
2022/11/07 07:57:05;;;;;;;;;;;;;;;7.28;100.00;100397.47;5032249;28;19948;-79
2022/11/07 07:59:30;;;;;;;;;;;;;;;7.40;100.00;100396.97;5013625;28;19917;-79
2022/11/07 08:01:55;;;;;;;;;;;;;;;7.44;100.00;100400.50;5013991;28;19917;-79
2022/11/07 08:04:20;;;;;;;;;;;;;;;7.52;100.00;100398.47;5012793;28;19924;-79
2022/11/07 08:06:46;;;;;;;;;;;;;;;7.59;100.00;100398.41;5031329;28;20370;-79
2022/11/07 08:09:12;;;;;;;;;;;;;;;7.68;100.00;100392.41;5030938;28;19928;-79
2022/11/07 08:11:37;;;;;;;;;;;;;;;7.75;100.00;100397.88;5031380;28;19913;-79
2022/11/07 08:14:02;;;;;;;;;;;;;;;7.79;100.00;100388.38;5031261;28;19917;-79
2022/11/07 08:16:28;;;;;;;;;;;;;;;7.82;100.00;100397.78;5035826;28;19917;-96
2022/11/07 08:18:53;;;;;;;;;;;;;;;7.87;100.00;100403.66;5034990;28;19913;-94
2022/11/07 08:21:18;;;;;;;;;;;;;;;7.90;100.00;100391.00;5037022;28;19967;-94
2022/11/07 08:23:44;;;;;;;;;;;;;;;7.92;100.00;100405.22;5035194;28;19913;-94
2022/11/07 08:26:09;;;;;;;;;;;;;;;7.94;100.00;100403.59;5016491;28;19921;-95
2022/11/07 08:28:35;;;;;;;;;;;;;;;8.05;100.00;100411.00;5034196;28;20019;-94
2022/11/07 08:31:05;;;;;;;;;;;;;;;8.00;100.00;100406.69;5036572;28;19912;-95
2022/11/07 08:33:30;;;;;;;;;;;;;;;7.93;100.00;100418.59;5030689;28;19920;-95
2022/11/07 08:35:56;;;;;;;;;;;;;;;7.93;100.00;100404.78;5036770;28;19917;-96
2022/11/07 08:38:22;;;;;;;;;;;;;;;7.97;100.00;100404.75;5021563;28;20275;-96
2022/11/07 08:40:48;;;;;;;;;;;;;;;8.04;100.00;100418.50;5035944;28;19925;-95
2022/11/07 08:43:15;;;;;;;;;;;;;;;8.08;100.00;100416.50;5032887;28;19960;-93
2022/11/07 08:45:41;;;;;;;;;;;;;;;8.09;100.00;100418.03;5033517;28;19921;-96
2022/11/07 08:48:06;;;;;;;;;;;;;;;8.09;100.00;100429.09;5034166;28;19917;-94
2022/11/07 08:50:32;;;;;;;;;;;;;;;8.17;100.00;100435.34;5032067;28;19938;-95
2022/11/07 08:52:58;;;;;;;;;;;;;;;8.24;100.00;100452.63;5032298;28;20341;-77
2022/11/07 08:55:23;;;;;;;;;;;;;;;8.08;100.00;100452.41;5030716;28;19917;-78
2022/11/07 08:57:49;;;;;;;;;;;;;;;8.12;100.00;100452.38;5031005;28;20405;-77
2022/11/07 09:00:14;;;;;;;;;;;;;;;8.10;100.00;100461.06;5030437;28;20290;-77
2022/11/07 09:02:40;;;;;;;;;;;;;;;8.22;100.00;100466.06;5030971;28;19968;-77
2022/11/07 09:05:05;;;;;;;;;;;;;;;8.30;100.00;100466.78;5030600;28;19924;-78
2022/11/07 09:07:31;;;;;;;;;;;;;;;8.34;100.00;100470.31;5030763;28;20496;-78
2022/11/07 09:09:56;;;;;;;;;;;;;;;8.39;100.00;100470.66;5030621;28;19927;-78
2022/11/07 09:12:21;;;;;;;;;;;;;;;8.55;100.00;100477.59;5031073;28;19917;-95
2022/11/07 09:14:47;;;;;;;;;;;;;;;8.58;100.00;100477.53;5031802;28;19980;-94
2022/11/07 09:17:12;;;;;;;;;;;;;;;8.62;100.00;100471.97;5032797;28;19961;-93
2022/11/07 09:19:38;;;;;;;;;;;;;;;8.77;100.00;100467.84;5032625;28;19921;-95
2022/11/07 09:22:03;;;;;;;;;;;;;;;8.73;100.00;100453.28;5036618;28;19925;-94
2022/11/07 09:24:28;;;;;;;;;;;;;;;8.84;100.00;100462.22;5036630;28;19917;-94
2022/11/07 09:26:54;;;;;;;;;;;;;;;8.94;100.00;100469.59;5035672;28;19917;-95
2022/11/07 09:29:19;;;;;;;;;;;;;;;9.06;100.00;100473.81;5032915;28;19997;-79
2022/11/07 09:31:44;;;;;;;;;;;;;;;9.09;100.00;100482.06;5038793;28;20002;-93
2022/11/07 09:34:10;;;;;;;;;;;;;;;9.21;100.00;100480.69;5038797;28;19920;-91
2022/11/07 09:36:35;;;;;;;;;;;;;;;9.39;100.00;100478.44;5038545;28;19952;-96
2022/11/07 09:39:00;;;;;;;;;;;;;;;9.32;100.00;100493.19;5038860;28;19917;-94
2022/11/07 09:41:35;;;;;;;;;;;;;;;9.41;100.00;100498.22;5038383;28;19913;-95
2022/11/07 09:44:35;;;;;;;;;;;;;;;9.54;100.00;100492.88;5037092;28;20012;-96
2022/11/07 09:47:18;;;;;;;;;;;;;;;9.52;100.00;100484.19;4956378;29;19926;-94
2022/11/07 09:49:54;;;;;;;;;;;;;;;9.65;100.00;100477.66;5014007;28;19924;-79
2022/11/07 09:52:37;;;;;;;;;;;;;;;9.56;100.00;100479.38;5033494;28;20389;-78
2022/11/07 09:55:06;;;;;;;;;;;;;;;9.53;100.00;100478.25;5015995;28;20011;-78
2022/11/07 09:57:32;;;;;;;;;;;;;;;9.61;100.00;100471.38;5033654;28;19920;-78
2022/11/07 10:00:13;;;;;;;;;;;;;;;9.71;100.00;100469.63;5033485;28;19917;-79
2022/11/07 10:02:40;;;;;;;;;;;;;;;9.90;100.00;100465.38;5016451;28;20445;-79
2022/11/07 10:05:05;;;;;;;;;;;;;;;10.04;100.00;100465.13;5033298;28;20334;-77
2022/11/07 10:07:43;;;;;;;;;;;;;;;10.20;100.00;100465.25;5033291;28;19924;-78
2022/11/07 10:10:21;;;;;;;;;;;;;;;10.27;100.00;100467.91;5035648;28;19972;-94
2022/11/07 10:13:09;;;;;;;;;;;;;;;10.28;100.00;100467.47;5024990;28;20016;-96
2022/11/07 10:15:41;;;;;;;;;;;;;;;10.56;100.00;100468.13;5030030;28;20299;-89
2022/11/07 10:18:14;;;;;;;;;;;;;;;10.82;100.00;100458.09;5027870;28;20011;-92
2022/11/07 10:20:54;;;;;;;;;;;;;;;11.12;100.00;100458.63;5021030;28;19917;-94
2022/11/07 10:23:20;;;;;;;;;;;;;;;11.35;100.00;100451.38;5028898;28;19917;-93
2022/11/07 10:25:45;;;;;;;;;;;;;;;11.52;100.00;100450.19;5018412;28;20386;-78
2022/11/07 10:28:12;;;;;;;;;;;;;;;11.46;100.00;100444.34;5029407;28;19923;-94
2022/11/07 10:30:37;;;;;;;;;;;;;;;11.51;100.00;100448.63;5017439;28;20390;-95
2022/11/07 10:33:21;;;;;;;;;;;;;;;11.53;100.00;100435.06;5029192;28;19936;-93
2022/11/07 10:35:49;;;;;;;;;;;;;;;11.65;100.00;100428.81;5032123;28;20267;-93
2022/11/07 10:38:21;;;;;;;;;;;;;;;11.62;100.00;100427.69;5019218;28;19994;-93
2022/11/07 10:40:46;;;;;;;;;;;;;;;11.77;100.00;100439.25;5030250;28;19921;-95
2022/11/07 10:43:31;;;;;;;;;;;;;;;11.79;100.00;100434.06;5031391;28;19928;-92
2022/11/07 10:45:57;;;;;;;;;;;;;;;11.83;100.00;100437.53;5033993;28;19975;-94
2022/11/07 10:48:22;;;;;;;;;;;;;;;11.76;100.00;100436.91;5033276;28;19991;-78
2022/11/07 10:50:54;;;;;;;;;;;;;;;11.81;100.00;100442.72;5032617;28;20331;-79
2022/11/07 10:53:19;;;;;;;;;;;;;;;11.80;100.00;100432.84;5032225;28;19917;-77
2022/11/07 10:55:46;;;;;;;;;;;;;;;11.97;100.00;100434.38;5032580;28;19917;-77
2022/11/07 10:58:19;;;;;;;;;;;;;;;11.97;100.00;100426.03;5032317;28;20267;-79
2022/11/07 11:00:44;;;;;;;;;;;;;;;12.09;100.00;100427.31;5032519;28;19964;-77
2022/11/07 11:03:16;;;;;;;;;;;;;;;12.00;100.00;100430.72;5031053;28;19916;-78
2022/11/07 11:05:42;;;;;;;;;;;;;;;12.04;100.00;100420.28;5031104;28;19916;-80
2022/11/07 11:08:15;;;;;;;;;;;;;;;11.97;100.00;100417.69;5024512;28;19923;-95
2022/11/07 11:10:41;;;;;;;;;;;;;;;12.14;100.00;100402.53;5040383;28;19917;-95
2022/11/07 11:13:06;;;;;;;;;;;;;;;12.17;100.00;100411.22;5041668;28;19979;-96
2022/11/07 11:15:31;;;;;;;;;;;;;;;12.20;100.00;100408.34;5039016;28;20404;-94
2022/11/07 11:18:01;;;;;;;;;;;;;;;12.29;100.00;100414.06;5019114;28;19913;-95
2022/11/07 11:20:36;;;;;;;;;;;;;;;12.39;100.00;100390.72;5036378;28;19926;-95
2022/11/07 11:23:02;;;;;;;;;;;;;;;12.46;100.00;100398.84;5019590;28;19917;-93
2022/11/07 11:25:28;;;;;;;;;;;;;;;12.45;100.00;100404.88;5018036;28;19964;-78
2022/11/07 11:28:01;;;;;;;;;;;;;;;12.54;100.00;100403.00;5032071;28;20418;-78
2022/11/07 11:30:27;;;;;;;;;;;;;;;12.38;100.00;100399.50;5013991;28;19921;-78
2022/11/07 11:33:00;;;;;;;;;;;;;;;12.25;100.00;100407.03;5014445;28;19966;-79
2022/11/07 11:35:32;;;;;;;;;;;;;;;12.32;100.00;100395.69;5013945;28;19921;-77
2022/11/07 11:37:59;;;;;;;;;;;;;;;12.38;100.00;100399.50;5014228;28;19974;-77
2022/11/07 11:40:24;;;;;;;;;;;;;;;12.54;100.00;100399.41;5031369;28;19999;-78
2022/11/07 11:43:08;;;;;;;;;;;;;;;12.47;100.00;100391.28;5031884;28;20002;-78
2022/11/07 11:45:36;;;;;;;;;;;;;;;12.66;100.00;100381.22;5032736;28;19924;-93
2022/11/07 11:48:23;;;;;;;;;;;;;;;12.72;100.00;100393.34;5016119;28;20079;-94
2022/11/07 11:50:50;;;;;;;;;;;;;;;12.45;100.00;100393.75;5033155;28;19917;-94
2022/11/07 11:53:17;;;;;;;;;;;;;;;12.60;100.00;100394.88;5034201;28;19929;-92
2022/11/07 11:55:47;;;;;;;;;;;;;;;12.72;100.00;100383.00;5015168;28;20382;-94
2022/11/07 11:58:19;;;;;;;;;;;;;;;12.69;99.23;100380.31;5014205;28;19917;-92
2022/11/07 12:00:51;;;;;;;;;;;;;;;12.84;100.00;100376.66;5032136;28;20312;-93
2022/11/07 12:03:22;;;;;;;;;;;;;;;12.99;100.00;100372.22;5031915;28;19921;-77
2022/11/07 12:05:47;;;;;;;;;;;;;;;13.16;100.00;100370.13;5013695;28;19921;-78
2022/11/07 12:08:13;;;;;;;;;;;;;;;13.14;100.00;100371.81;4997055;28;19979;-78
2022/11/07 12:11:01;;;;;;;;;;;;;;;13.13;100.00;100362.66;5030759;28;19916;-78
2022/11/07 12:13:31;;;;;;;;;;;;;;;13.15;100.00;100362.19;5020112;28;19917;-78
2022/11/07 12:16:26;;;;;;;;;;;;;;;13.19;98.88;100357.31;5029946;28;19917;-78
2022/11/07 12:18:57;;;;;;;;;;;;;;;13.29;99.02;100342.25;5013771;28;19928;-78
2022/11/07 12:21:26;;;;;;;;;;;;;;;13.34;99.85;100358.41;5029808;28;20031;-78
2022/11/07 12:23:57;;;;;;;;;;;;;;;13.34;100.00;100355.63;5031880;28;19921;-94
2022/11/07 12:26:25;;;;;;;;;;;;;;;13.38;100.00;100362.66;5015476;28;20015;-93
2022/11/07 12:29:00;;;;;;;;;;;;;;;13.38;100.00;100359.88;5031758;28;19913;-94
2022/11/07 12:31:41;;;;;;;;;;;;;;;13.27;98.52;100362.19;5033617;28;19917;-93
2022/11/07 12:34:11;;;;;;;;;;;;;;;13.29;99.32;100358.97;5031151;28;19917;-95
2022/11/07 12:36:39;;;;;;;;;;;;;;;13.35;99.89;100359.94;5032253;28;19921;-96
2022/11/07 12:39:11;;;;;;;;;;;;;;;13.54;98.09;100351.34;5033270;28;19928;-78
2022/11/07 12:41:36;;;;;;;;;;;;;;;13.55;98.15;100352.09;5031442;28;20270;-95
2022/11/07 12:44:20;;;;;;;;;;;;;;;13.51;99.25;100343.88;5035598;28;20011;-94
2022/11/07 12:46:46;;;;;;;;;;;;;;;13.59;100.00;100354.81;5043620;28;19917;-95